McDonald, Ohio
Current Conditions -  °F | °C
As of 8:51 AM on Tuesday 21 Oct 2014 (Local Time) from KYNG Reporting Station
Light Rain Light Rain  
Wind Chill: 50°   Ceiling: 600
Heat Index: 50°   Visibility: 2mi
Dew Point: 48°   Wind: 8mph
Humidity: 93%   Direction: 330°NNW
Pressure: 29.87"   Gusts: NA
Location:  41.16°N, 80.72°W
Report Text: KYNG 211251Z 33007KT 2SM -RA BR BKN006 OVC045 10/09 A2987 RMK AO2 SLP118 P0000 T01000089
Loading
Personal Weather Stations






























Interactive Weather Map
Tropical Storm Tracking
New forecast layout! Learn more

10-Day Weather Forecast

Advertisements
Track Severe Weather on mobile